MONCTON A N.B. current weather conditions

sailwx.info

Wind from 260 at 7 knots

Air temperature 13.0° C
Visibility: greater than 13.0 NM
Dewpoint 2.0° C

Last reported at 2019-Oct-20 18:00 UTC.
Time now 2019-Oct-20 18:44 UTC

Location: N 46°06' W 064°41'.
View on Google Maps.

See reports from other nearby stations

  
Tides and Currents Weather Stations Pressure Air Temp Water Temp Dewpoint Dewpoint Depression Visibility Wind Speed Wind Dir Waves Ship Positions
date/time (UTC)wind fromknots sea level pressurealtimeterstation pressurevisibilityair tempwater tempwave heightnotes
2019-Oct-20 18:00 260 7 13.013.0
2019-Oct-20 17:00 290 6 13.012.0
2019-Oct-20 16:00 280 6 13.011.0
2019-Oct-20 15:00 290 7 13.0 9.0
2019-Oct-20 14:00 250 7 13.0 8.0
2019-Oct-20 13:00 250 9 13.0 5.0
2019-Oct-20 12:00 250 11 13.0 3.0
2019-Oct-20 11:00 240 11 13.0 2.0
2019-Oct-20 10:00 250 9 13.0 2.0
2019-Oct-20 09:00 240 8 13.0 2.0
2019-Oct-20 08:00 210 7 13.0 1.0
2019-Oct-20 07:00 230 6 13.0 2.0
2019-Oct-20 06:48 250 5 13.0 2.0
2019-Oct-20 06:00 260 7 13.0 3.0
2019-Oct-20 05:00 250 9 13.0 4.0
2019-Oct-20 04:00 250 8 13.0 4.0
2019-Oct-20 03:00 260 8 13.0 5.0
2019-Oct-20 02:00 270 8 13.0 6.0
2019-Oct-20 01:00 270 7 13.0 7.0
2019-Oct-20 00:00 270 8 13.0 7.0
2019-Oct-19 23:00 270 7 13.0 8.0
2019-Oct-19 22:00 290 7 13.0 8.0
2019-Oct-19 21:00 290 12 13.0 9.0
2019-Oct-19 20:00 280 9 gusting 14 13.010.0
2019-Oct-19 19:00 290 11 gusting 22 13.010.0
2019-Oct-19 18:00 290 11 13.010.0
2019-Oct-19 17:00 300 9 gusting 14 13.010.0
2019-Oct-19 16:00 310 9 gusting 17 13.010.0
2019-Oct-19 15:00 290 12 13.0 8.0
2019-Oct-19 14:00 280 8 gusting 19 13.0 8.0 Light rain showers.
2019-Oct-19 13:00 270 11 13.0 7.0
2019-Oct-19 12:17 260 8 13.0 7.0
2019-Oct-19 11:00 260 7 13.0 6.0
2019-Oct-19 10:00 260 9 13.0 6.0
2019-Oct-19 09:00 250 9 13.0 6.0
2019-Oct-19 08:00 250 9 13.0 6.0
2019-Oct-19 07:00 250 9 13.0 6.0
2019-Oct-19 06:00 260 7 13.0 6.0
2019-Oct-19 05:00 240 9 13.0 7.0
2019-Oct-19 04:00 260 12 13.0 7.0
2019-Oct-19 03:00 250 8 13.0 6.0
2019-Oct-19 02:00 240 7 13.0 6.0
2019-Oct-19 01:00 240 8 13.0 6.0
2019-Oct-19 00:00 260 11 13.0 7.0
2019-Oct-18 23:00 250 11 gusting 15 13.0 7.0
2019-Oct-18 22:00 240 12 13.0 7.0
2019-Oct-18 21:00 240 11 gusting 15 13.0 7.0
2019-Oct-18 20:00 250 12 gusting 19 13.0 7.0
2019-Oct-18 19:00 250 14 gusting 20 13.0 7.0
2019-Oct-18 18:00 240 13 13.0 8.0